sensor_id;sensor_type;location;lat;lon;timestamp;P1;durP1;ratioP1;P2;durP2;ratioP2
2187;SDS011;1100;52.014;8.540;2023-07-28T00:01:26;3.20;;;1.40;;
2187;SDS011;1100;52.014;8.540;2023-07-28T00:03:51;4.77;;;1.67;;
2187;SDS011;1100;52.014;8.540;2023-07-28T00:06:17;3.80;;;1.55;;
2187;SDS011;1100;52.014;8.540;2023-07-28T00:08:43;3.03;;;1.20;;
2187;SDS011;1100;52.014;8.540;2023-07-28T00:11:09;2.40;;;0.80;;
2187;SDS011;1100;52.014;8.540;2023-07-28T00:13:38;2.42;;;0.95;;
2187;SDS011;1100;52.014;8.540;2023-07-28T00:16:05;3.72;;;1.30;;
2187;SDS011;1100;52.014;8.540;2023-07-28T00:18:31;3.00;;;1.35;;
2187;SDS011;1100;52.014;8.540;2023-07-28T00:20:56;3.63;;;1.40;;
2187;SDS011;1100;52.014;8.540;2023-07-28T00:23:23;4.53;;;1.80;;
2187;SDS011;1100;52.014;8.540;2023-07-28T00:25:53;2.50;;;0.90;;
2187;SDS011;1100;52.014;8.540;2023-07-28T00:28:18;8.30;;;1.83;;
2187;SDS011;1100;52.014;8.540;2023-07-28T00:30:44;3.03;;;0.97;;
2187;SDS011;1100;52.014;8.540;2023-07-28T00:33:13;3.15;;;0.88;;
2187;SDS011;1100;52.014;8.540;2023-07-28T00:35:40;3.63;;;1.58;;
2187;SDS011;1100;52.014;8.540;2023-07-28T00:38:05;2.67;;;1.00;;
2187;SDS011;1100;52.014;8.540;2023-07-28T00:40:31;3.33;;;1.63;;
2187;SDS011;1100;52.014;8.540;2023-07-28T00:42:56;2.43;;;1.03;;
2187;SDS011;1100;52.014;8.540;2023-07-28T00:45:21;3.97;;;1.67;;
2187;SDS011;1100;52.014;8.540;2023-07-28T00:47:47;3.33;;;1.40;;
2187;SDS011;1100;52.014;8.540;2023-07-28T00:50:12;3.33;;;1.43;;
2187;SDS011;1100;52.014;8.540;2023-07-28T00:52:38;4.72;;;1.30;;
2187;SDS011;1100;52.014;8.540;2023-07-28T00:55:05;2.90;;;1.27;;
2187;SDS011;1100;52.014;8.540;2023-07-28T00:57:31;2.70;;;1.23;;
2187;SDS011;1100;52.014;8.540;2023-07-28T00:59:56;3.27;;;1.33;;
2187;SDS011;1100;52.014;8.540;2023-07-28T01:02:22;5.65;;;2.20;;
2187;SDS011;1100;52.014;8.540;2023-07-28T01:04:48;3.47;;;1.90;;
2187;SDS011;1100;52.014;8.540;2023-07-28T01:07:15;2.65;;;1.00;;
2187;SDS011;1100;52.014;8.540;2023-07-28T01:09:52;4.15;;;1.33;;
2187;SDS011;1100;52.014;8.540;2023-07-28T01:12:23;4.50;;;1.67;;
2187;SDS011;1100;52.014;8.540;2023-07-28T01:14:49;4.35;;;2.25;;
2187;SDS011;1100;52.014;8.540;2023-07-28T01:17:14;5.10;;;1.97;;
2187;SDS011;1100;52.014;8.540;2023-07-28T01:19:40;5.53;;;2.15;;
2187;SDS011;1100;52.014;8.540;2023-07-28T01:27:25;5.03;;;2.03;;
2187;SDS011;1100;52.014;8.540;2023-07-28T01:29:51;4.37;;;2.23;;
2187;SDS011;1100;52.014;8.540;2023-07-28T01:32:16;6.10;;;2.47;;
2187;SDS011;1100;52.014;8.540;2023-07-28T01:34:42;6.07;;;3.17;;
2187;SDS011;1100;52.014;8.540;2023-07-28T01:37:07;5.13;;;2.07;;
2187;SDS011;1100;52.014;8.540;2023-07-28T01:39:33;5.20;;;3.60;;
2187;SDS011;1100;52.014;8.540;2023-07-28T01:41:58;7.30;;;2.70;;
2187;SDS011;1100;52.014;8.540;2023-07-28T01:44:23;4.53;;;2.33;;
2187;SDS011;1100;52.014;8.540;2023-07-28T01:46:49;4.50;;;1.73;;
2187;SDS011;1100;52.014;8.540;2023-07-28T01:49:14;3.43;;;1.83;;
2187;SDS011;1100;52.014;8.540;2023-07-28T01:51:39;6.63;;;3.60;;
2187;SDS011;1100;52.014;8.540;2023-07-28T01:54:05;4.32;;;2.03;;
2187;SDS011;1100;52.014;8.540;2023-07-28T01:56:30;3.30;;;1.80;;
2187;SDS011;1100;52.014;8.540;2023-07-28T01:58:55;4.30;;;1.57;;
2187;SDS011;1100;52.014;8.540;2023-07-28T02:01:20;3.37;;;1.17;;
2187;SDS011;1100;52.014;8.540;2023-07-28T02:03:46;3.80;;;1.73;;
2187;SDS011;1100;52.014;8.540;2023-07-28T02:06:11;3.30;;;1.50;;
2187;SDS011;1100;52.014;8.540;2023-07-28T02:08:36;3.80;;;1.33;;
2187;SDS011;1100;52.014;8.540;2023-07-28T02:11:02;4.10;;;1.77;;
2187;SDS011;1100;52.014;8.540;2023-07-28T02:13:27;3.13;;;1.70;;
2187;SDS011;1100;52.014;8.540;2023-07-28T02:15:52;3.37;;;1.50;;
2187;SDS011;1100;52.014;8.540;2023-07-28T02:18:17;3.72;;;1.85;;
2187;SDS011;1100;52.014;8.540;2023-07-28T02:20:43;4.70;;;1.53;;
2187;SDS011;1100;52.014;8.540;2023-07-28T02:23:08;2.87;;;1.17;;
2187;SDS011;1100;52.014;8.540;2023-07-28T02:25:33;3.37;;;1.77;;
2187;SDS011;1100;52.014;8.540;2023-07-28T02:27:59;2.90;;;1.20;;
2187;SDS011;1100;52.014;8.540;2023-07-28T02:30:24;3.07;;;1.17;;
2187;SDS011;1100;52.014;8.540;2023-07-28T02:32:49;3.23;;;1.20;;
2187;SDS011;1100;52.014;8.540;2023-07-28T02:35:15;3.40;;;1.50;;
2187;SDS011;1100;52.014;8.540;2023-07-28T02:37:40;3.35;;;1.50;;
2187;SDS011;1100;52.014;8.540;2023-07-28T02:40:06;4.30;;;1.30;;
2187;SDS011;1100;52.014;8.540;2023-07-28T02:42:32;3.40;;;1.58;;
2187;SDS011;1100;52.014;8.540;2023-07-28T02:44:58;4.07;;;1.70;;
2187;SDS011;1100;52.014;8.540;2023-07-28T02:47:24;4.57;;;2.20;;
2187;SDS011;1100;52.014;8.540;2023-07-28T02:49:49;4.33;;;1.90;;
2187;SDS011;1100;52.014;8.540;2023-07-28T02:52:14;3.93;;;1.83;;
2187;SDS011;1100;52.014;8.540;2023-07-28T02:54:40;4.03;;;2.20;;
2187;SDS011;1100;52.014;8.540;2023-07-28T02:57:05;4.45;;;1.33;;
2187;SDS011;1100;52.014;8.540;2023-07-28T02:59:31;4.93;;;1.80;;
2187;SDS011;1100;52.014;8.540;2023-07-28T03:01:56;10.80;;;1.97;;
2187;SDS011;1100;52.014;8.540;2023-07-28T03:04:22;3.65;;;1.60;;
2187;SDS011;1100;52.014;8.540;2023-07-28T03:06:47;3.83;;;1.80;;
2187;SDS011;1100;52.014;8.540;2023-07-28T03:09:13;3.50;;;1.77;;
2187;SDS011;1100;52.014;8.540;2023-07-28T03:11:38;3.72;;;1.80;;
2187;SDS011;1100;52.014;8.540;2023-07-28T03:14:04;4.63;;;1.67;;
2187;SDS011;1100;52.014;8.540;2023-07-28T03:16:29;3.33;;;1.63;;
2187;SDS011;1100;52.014;8.540;2023-07-28T03:18:54;3.63;;;1.93;;
2187;SDS011;1100;52.014;8.540;2023-07-28T03:21:20;4.67;;;1.60;;
2187;SDS011;1100;52.014;8.540;2023-07-28T03:23:45;4.27;;;1.60;;
2187;SDS011;1100;52.014;8.540;2023-07-28T03:26:10;3.37;;;1.90;;
2187;SDS011;1100;52.014;8.540;2023-07-28T03:28:36;3.83;;;1.63;;
2187;SDS011;1100;52.014;8.540;2023-07-28T03:31:01;3.50;;;1.80;;
2187;SDS011;1100;52.014;8.540;2023-07-28T03:33:26;4.33;;;1.70;;
2187;SDS011;1100;52.014;8.540;2023-07-28T03:35:52;3.20;;;1.40;;
2187;SDS011;1100;52.014;8.540;2023-07-28T03:38:17;3.23;;;1.73;;
2187;SDS011;1100;52.014;8.540;2023-07-28T03:40:43;4.13;;;1.35;;
2187;SDS011;1100;52.014;8.540;2023-07-28T03:43:09;3.33;;;1.70;;
2187;SDS011;1100;52.014;8.540;2023-07-28T03:45:34;3.50;;;1.73;;
2187;SDS011;1100;52.014;8.540;2023-07-28T03:47:59;3.35;;;1.33;;
2187;SDS011;1100;52.014;8.540;2023-07-28T03:50:25;5.67;;;2.63;;
2187;SDS011;1100;52.014;8.540;2023-07-28T03:52:51;3.60;;;1.60;;
2187;SDS011;1100;52.014;8.540;2023-07-28T03:55:16;4.13;;;1.83;;
2187;SDS011;1100;52.014;8.540;2023-07-28T03:57:42;3.90;;;1.93;;
2187;SDS011;1100;52.014;8.540;2023-07-28T04:00:07;5.10;;;2.10;;
2187;SDS011;1100;52.014;8.540;2023-07-28T04:02:33;3.97;;;1.77;;
2187;SDS011;1100;52.014;8.540;2023-07-28T04:04:58;3.07;;;1.57;;
2187;SDS011;1100;52.014;8.540;2023-07-28T04:07:24;3.15;;;1.33;;
2187;SDS011;1100;52.014;8.540;2023-07-28T04:09:50;3.43;;;1.53;;
2187;SDS011;1100;52.014;8.540;2023-07-28T04:12:15;5.10;;;1.77;;
2187;SDS011;1100;52.014;8.540;2023-07-28T04:14:40;5.23;;;2.77;;
2187;SDS011;1100;52.014;8.540;2023-07-28T04:17:06;4.53;;;2.17;;
2187;SDS011;1100;52.014;8.540;2023-07-28T04:19:32;4.57;;;1.88;;
2187;SDS011;1100;52.014;8.540;2023-07-28T04:21:58;4.28;;;2.60;;
2187;SDS011;1100;52.014;8.540;2023-07-28T04:24:24;4.63;;;2.05;;
2187;SDS011;1100;52.014;8.540;2023-07-28T04:26:50;8.13;;;3.00;;
2187;SDS011;1100;52.014;8.540;2023-07-28T04:29:15;4.35;;;2.28;;
2187;SDS011;1100;52.014;8.540;2023-07-28T04:31:41;4.77;;;2.20;;
2187;SDS011;1100;52.014;8.540;2023-07-28T04:34:06;4.50;;;1.90;;
2187;SDS011;1100;52.014;8.540;2023-07-28T04:36:31;4.77;;;1.93;;
2187;SDS011;1100;52.014;8.540;2023-07-28T04:38:57;4.37;;;1.73;;
2187;SDS011;1100;52.014;8.540;2023-07-28T04:41:22;5.90;;;2.30;;
2187;SDS011;1100;52.014;8.540;2023-07-28T04:43:47;6.23;;;3.13;;
2187;SDS011;1100;52.014;8.540;2023-07-28T04:46:13;5.70;;;2.33;;
2187;SDS011;1100;52.014;8.540;2023-07-28T04:48:38;3.70;;;1.80;;
2187;SDS011;1100;52.014;8.540;2023-07-28T04:51:03;5.97;;;3.17;;
2187;SDS011;1100;52.014;8.540;2023-07-28T04:53:29;3.47;;;1.70;;
2187;SDS011;1100;52.014;8.540;2023-07-28T04:55:54;4.90;;;2.40;;
2187;SDS011;1100;52.014;8.540;2023-07-28T04:58:19;5.43;;;3.27;;
2187;SDS011;1100;52.014;8.540;2023-07-28T05:00:45;5.20;;;2.10;;
2187;SDS011;1100;52.014;8.540;2023-07-28T05:03:10;6.90;;;2.90;;
2187;SDS011;1100;52.014;8.540;2023-07-28T05:05:35;4.77;;;2.03;;
2187;SDS011;1100;52.014;8.540;2023-07-28T05:08:00;5.30;;;2.93;;
2187;SDS011;1100;52.014;8.540;2023-07-28T05:10:26;4.47;;;1.92;;
2187;SDS011;1100;52.014;8.540;2023-07-28T05:12:51;3.17;;;1.20;;
2187;SDS011;1100;52.014;8.540;2023-07-28T05:15:17;4.90;;;2.43;;
2187;SDS011;1100;52.014;8.540;2023-07-28T05:17:42;4.03;;;2.08;;
2187;SDS011;1100;52.014;8.540;2023-07-28T05:20:08;4.67;;;2.63;;
2187;SDS011;1100;52.014;8.540;2023-07-28T05:22:33;4.43;;;1.57;;
2187;SDS011;1100;52.014;8.540;2023-07-28T05:24:59;4.50;;;2.37;;
2187;SDS011;1100;52.014;8.540;2023-07-28T05:27:24;4.37;;;1.67;;
2187;SDS011;1100;52.014;8.540;2023-07-28T05:29:50;5.40;;;3.10;;
2187;SDS011;1100;52.014;8.540;2023-07-28T05:32:15;4.10;;;1.90;;
2187;SDS011;1100;52.014;8.540;2023-07-28T05:34:42;4.43;;;2.45;;
2187;SDS011;1100;52.014;8.540;2023-07-28T05:37:08;4.27;;;2.20;;
2187;SDS011;1100;52.014;8.540;2023-07-28T05:39:34;5.32;;;2.58;;
2187;SDS011;1100;52.014;8.540;2023-07-28T05:41:59;4.83;;;2.43;;
2187;SDS011;1100;52.014;8.540;2023-07-28T05:44:24;6.30;;;2.23;;
2187;SDS011;1100;52.014;8.540;2023-07-28T05:46:50;7.63;;;3.10;;
2187;SDS011;1100;52.014;8.540;2023-07-28T05:49:15;4.83;;;3.00;;
2187;SDS011;1100;52.014;8.540;2023-07-28T05:51:41;5.53;;;2.40;;
2187;SDS011;1100;52.014;8.540;2023-07-28T05:54:06;3.53;;;1.90;;
2187;SDS011;1100;52.014;8.540;2023-07-28T05:56:32;6.90;;;3.03;;
2187;SDS011;1100;52.014;8.540;2023-07-28T05:58:57;6.00;;;3.00;;
2187;SDS011;1100;52.014;8.540;2023-07-28T06:01:22;8.63;;;3.20;;
2187;SDS011;1100;52.014;8.540;2023-07-28T06:03:50;6.57;;;2.70;;
2187;SDS011;1100;52.014;8.540;2023-07-28T06:06:16;8.95;;;3.13;;
2187;SDS011;1100;52.014;8.540;2023-07-28T06:08:43;5.35;;;2.95;;
2187;SDS011;1100;52.014;8.540;2023-07-28T06:11:08;7.53;;;3.23;;
2187;SDS011;1100;52.014;8.540;2023-07-28T06:13:33;5.63;;;2.23;;
2187;SDS011;1100;52.014;8.540;2023-07-28T06:15:59;4.23;;;2.10;;
2187;SDS011;1100;52.014;8.540;2023-07-28T06:18:24;4.57;;;2.63;;
2187;SDS011;1100;52.014;8.540;2023-07-28T06:20:50;6.23;;;2.90;;
2187;SDS011;1100;52.014;8.540;2023-07-28T06:23:15;4.73;;;2.53;;
2187;SDS011;1100;52.014;8.540;2023-07-28T06:25:41;6.35;;;2.80;;
2187;SDS011;1100;52.014;8.540;2023-07-28T06:28:10;5.30;;;2.73;;
2187;SDS011;1100;52.014;8.540;2023-07-28T06:30:36;5.40;;;2.22;;
2187;SDS011;1100;52.014;8.540;2023-07-28T06:33:03;6.47;;;2.85;;
2187;SDS011;1100;52.014;8.540;2023-07-28T06:35:29;5.82;;;3.28;;
2187;SDS011;1100;52.014;8.540;2023-07-28T06:37:55;7.77;;;3.07;;
2187;SDS011;1100;52.014;8.540;2023-07-28T06:40:20;5.60;;;3.37;;
2187;SDS011;1100;52.014;8.540;2023-07-28T06:42:45;7.90;;;3.00;;
2187;SDS011;1100;52.014;8.540;2023-07-28T06:45:11;6.18;;;3.67;;
2187;SDS011;1100;52.014;8.540;2023-07-28T06:47:37;5.73;;;2.77;;
2187;SDS011;1100;52.014;8.540;2023-07-28T06:50:03;6.32;;;3.20;;
2187;SDS011;1100;52.014;8.540;2023-07-28T06:52:30;7.15;;;3.03;;
2187;SDS011;1100;52.014;8.540;2023-07-28T06:54:55;5.90;;;2.47;;
2187;SDS011;1100;52.014;8.540;2023-07-28T06:57:21;6.00;;;3.20;;
2187;SDS011;1100;52.014;8.540;2023-07-28T06:59:46;3.90;;;1.60;;
2187;SDS011;1100;52.014;8.540;2023-07-28T07:02:11;5.18;;;3.03;;
2187;SDS011;1100;52.014;8.540;2023-07-28T07:04:37;5.23;;;2.40;;
2187;SDS011;1100;52.014;8.540;2023-07-28T07:07:02;5.93;;;1.97;;
2187;SDS011;1100;52.014;8.540;2023-07-28T07:09:27;4.80;;;2.40;;
2187;SDS011;1100;52.014;8.540;2023-07-28T07:11:53;5.77;;;2.63;;
2187;SDS011;1100;52.014;8.540;2023-07-28T07:14:18;5.55;;;2.50;;
2187;SDS011;1100;52.014;8.540;2023-07-28T07:16:44;5.27;;;2.60;;
2187;SDS011;1100;52.014;8.540;2023-07-28T07:19:09;6.20;;;2.27;;
2187;SDS011;1100;52.014;8.540;2023-07-28T07:21:34;5.53;;;2.07;;
2187;SDS011;1100;52.014;8.540;2023-07-28T07:24:03;5.50;;;2.88;;
2187;SDS011;1100;52.014;8.540;2023-07-28T07:26:29;4.68;;;1.83;;
2187;SDS011;1100;52.014;8.540;2023-07-28T07:28:58;4.77;;;2.17;;
2187;SDS011;1100;52.014;8.540;2023-07-28T07:31:24;5.13;;;2.30;;
2187;SDS011;1100;52.014;8.540;2023-07-28T07:33:49;4.67;;;2.00;;
2187;SDS011;1100;52.014;8.540;2023-07-28T07:36:15;6.05;;;2.50;;
2187;SDS011;1100;52.014;8.540;2023-07-28T07:38:42;6.87;;;2.63;;
2187;SDS011;1100;52.014;8.540;2023-07-28T07:41:12;7.57;;;3.10;;
2187;SDS011;1100;52.014;8.540;2023-07-28T07:43:41;4.80;;;2.05;;
2187;SDS011;1100;52.014;8.540;2023-07-28T07:46:06;5.00;;;2.47;;
2187;SDS011;1100;52.014;8.540;2023-07-28T07:48:32;5.63;;;2.90;;
2187;SDS011;1100;52.014;8.540;2023-07-28T07:50:57;6.17;;;2.93;;
2187;SDS011;1100;52.014;8.540;2023-07-28T07:53:23;4.97;;;2.05;;
2187;SDS011;1100;52.014;8.540;2023-07-28T07:55:49;5.00;;;1.47;;
2187;SDS011;1100;52.014;8.540;2023-07-28T07:58:14;5.30;;;2.43;;
2187;SDS011;1100;52.014;8.540;2023-07-28T08:00:40;5.83;;;2.10;;
2187;SDS011;1100;52.014;8.540;2023-07-28T08:03:05;5.03;;;2.60;;
2187;SDS011;1100;52.014;8.540;2023-07-28T08:05:30;6.37;;;2.30;;
2187;SDS011;1100;52.014;8.540;2023-07-28T08:07:56;5.30;;;2.53;;
2187;SDS011;1100;52.014;8.540;2023-07-28T08:10:22;5.33;;;2.97;;
2187;SDS011;1100;52.014;8.540;2023-07-28T08:12:47;4.90;;;2.47;;
2187;SDS011;1100;52.014;8.540;2023-07-28T08:15:13;8.83;;;2.50;;
2187;SDS011;1100;52.014;8.540;2023-07-28T08:17:38;4.90;;;2.53;;
2187;SDS011;1100;52.014;8.540;2023-07-28T08:20:05;4.88;;;2.15;;
2187;SDS011;1100;52.014;8.540;2023-07-28T08:22:31;5.73;;;1.93;;
2187;SDS011;1100;52.014;8.540;2023-07-28T08:24:57;4.25;;;1.98;;
2187;SDS011;1100;52.014;8.540;2023-07-28T08:27:22;4.37;;;2.03;;
2187;SDS011;1100;52.014;8.540;2023-07-28T08:29:48;6.93;;;2.13;;
2187;SDS011;1100;52.014;8.540;2023-07-28T08:32:14;4.47;;;1.80;;
2187;SDS011;1100;52.014;8.540;2023-07-28T08:34:39;4.33;;;1.40;;
2187;SDS011;1100;52.014;8.540;2023-07-28T08:37:04;3.77;;;1.57;;
2187;SDS011;1100;52.014;8.540;2023-07-28T08:39:30;4.03;;;1.83;;
2187;SDS011;1100;52.014;8.540;2023-07-28T08:42:02;4.80;;;1.10;;
2187;SDS011;1100;52.014;8.540;2023-07-28T08:44:32;4.07;;;1.50;;
2187;SDS011;1100;52.014;8.540;2023-07-28T08:46:59;3.38;;;1.30;;
2187;SDS011;1100;52.014;8.540;2023-07-28T08:49:26;3.72;;;1.30;;
2187;SDS011;1100;52.014;8.540;2023-07-28T08:51:52;3.87;;;1.37;;
2187;SDS011;1100;52.014;8.540;2023-07-28T08:54:21;3.22;;;1.40;;
2187;SDS011;1100;52.014;8.540;2023-07-28T08:56:47;4.10;;;1.57;;
2187;SDS011;1100;52.014;8.540;2023-07-28T08:59:15;3.22;;;0.88;;
2187;SDS011;1100;52.014;8.540;2023-07-28T09:01:45;3.77;;;1.37;;
2187;SDS011;1100;52.014;8.540;2023-07-28T09:04:11;4.30;;;1.50;;
2187;SDS011;1100;52.014;8.540;2023-07-28T09:06:37;3.33;;;1.10;;
2187;SDS011;1100;52.014;8.540;2023-07-28T09:09:05;4.22;;;1.30;;
2187;SDS011;1100;52.014;8.540;2023-07-28T09:11:32;3.72;;;1.42;;
2187;SDS011;1100;52.014;8.540;2023-07-28T09:13:59;5.10;;;1.67;;
2187;SDS011;1100;52.014;8.540;2023-07-28T09:16:25;4.25;;;1.77;;
2187;SDS011;1100;52.014;8.540;2023-07-28T09:18:51;4.10;;;1.40;;
2187;SDS011;1100;52.014;8.540;2023-07-28T09:21:28;3.72;;;1.35;;
2187;SDS011;1100;52.014;8.540;2023-07-28T09:23:53;3.90;;;1.50;;
2187;SDS011;1100;52.014;8.540;2023-07-28T09:26:19;4.90;;;1.70;;
2187;SDS011;1100;52.014;8.540;2023-07-28T09:28:44;4.32;;;1.38;;
2187;SDS011;1100;52.014;8.540;2023-07-28T09:31:10;3.57;;;1.43;;
2187;SDS011;1100;52.014;8.540;2023-07-28T09:33:36;3.53;;;1.25;;
2187;SDS011;1100;52.014;8.540;2023-07-28T09:36:11;4.15;;;1.30;;
2187;SDS011;1100;52.014;8.540;2023-07-28T09:38:38;3.83;;;1.63;;
2187;SDS011;1100;52.014;8.540;2023-07-28T09:41:05;3.00;;;0.98;;
2187;SDS011;1100;52.014;8.540;2023-07-28T09:43:34;3.25;;;1.20;;
2187;SDS011;1100;52.014;8.540;2023-07-28T09:46:00;3.25;;;1.05;;
2187;SDS011;1100;52.014;8.540;2023-07-28T09:48:28;3.78;;;1.15;;
2187;SDS011;1100;52.014;8.540;2023-07-28T09:50:57;3.43;;;1.50;;
2187;SDS011;1100;52.014;8.540;2023-07-28T09:53:24;3.60;;;1.27;;
2187;SDS011;1100;52.014;8.540;2023-07-28T09:55:52;3.40;;;1.20;;
2187;SDS011;1100;52.014;8.540;2023-07-28T09:58:18;3.33;;;1.33;;
2187;SDS011;1100;52.014;8.540;2023-07-28T10:00:47;3.50;;;1.52;;
2187;SDS011;1100;52.014;8.540;2023-07-28T10:03:13;7.07;;;1.80;;
2187;SDS011;1100;52.014;8.540;2023-07-28T10:05:39;4.03;;;1.42;;
2187;SDS011;1100;52.014;8.540;2023-07-28T10:08:05;4.57;;;1.93;;
2187;SDS011;1100;52.014;8.540;2023-07-28T10:10:31;4.00;;;1.65;;
2187;SDS011;1100;52.014;8.540;2023-07-28T10:12:57;4.53;;;1.17;;
2187;SDS011;1100;52.014;8.540;2023-07-28T10:15:28;3.95;;;1.58;;
2187;SDS011;1100;52.014;8.540;2023-07-28T10:17:55;3.63;;;1.25;;
2187;SDS011;1100;52.014;8.540;2023-07-28T10:23:01;3.88;;;1.20;;
2187;SDS011;1100;52.014;8.540;2023-07-28T10:25:32;3.85;;;1.45;;
2187;SDS011;1100;52.014;8.540;2023-07-28T10:28:02;5.40;;;1.40;;
2187;SDS011;1100;52.014;8.540;2023-07-28T10:30:29;5.70;;;1.40;;
2187;SDS011;1100;52.014;8.540;2023-07-28T10:32:59;4.87;;;1.47;;
2187;SDS011;1100;52.014;8.540;2023-07-28T10:35:28;4.32;;;1.70;;
2187;SDS011;1100;52.014;8.540;2023-07-28T10:37:57;4.40;;;1.43;;
2187;SDS011;1100;52.014;8.540;2023-07-28T10:42:51;7.90;;;1.70;;
2187;SDS011;1100;52.014;8.540;2023-07-28T10:45:17;4.38;;;1.30;;
2187;SDS011;1100;52.014;8.540;2023-07-28T10:47:43;6.70;;;1.63;;
2187;SDS011;1100;52.014;8.540;2023-07-28T10:50:09;4.10;;;1.50;;
2187;SDS011;1100;52.014;8.540;2023-07-28T10:52:39;6.15;;;1.45;;
2187;SDS011;1100;52.014;8.540;2023-07-28T10:55:11;4.90;;;1.30;;
2187;SDS011;1100;52.014;8.540;2023-07-28T10:57:41;4.22;;;1.50;;
2187;SDS011;1100;52.014;8.540;2023-07-28T11:00:08;8.30;;;1.88;;
2187;SDS011;1100;52.014;8.540;2023-07-28T11:02:37;3.78;;;1.42;;
2187;SDS011;1100;52.014;8.540;2023-07-28T11:05:09;5.82;;;2.13;;
2187;SDS011;1100;52.014;8.540;2023-07-28T11:07:36;4.67;;;1.60;;
2187;SDS011;1100;52.014;8.540;2023-07-28T11:10:02;5.93;;;1.90;;
2187;SDS011;1100;52.014;8.540;2023-07-28T11:12:29;4.22;;;1.60;;
2187;SDS011;1100;52.014;8.540;2023-07-28T11:14:54;3.13;;;1.37;;
2187;SDS011;1100;52.014;8.540;2023-07-28T11:17:20;4.47;;;1.63;;
2187;SDS011;1100;52.014;8.540;2023-07-28T11:19:45;4.87;;;1.60;;
2187;SDS011;1100;52.014;8.540;2023-07-28T11:22:10;4.80;;;1.90;;
2187;SDS011;1100;52.014;8.540;2023-07-28T11:24:36;5.20;;;1.77;;
2187;SDS011;1100;52.014;8.540;2023-07-28T11:27:01;4.47;;;1.83;;
2187;SDS011;1100;52.014;8.540;2023-07-28T11:29:27;3.80;;;1.65;;
2187;SDS011;1100;52.014;8.540;2023-07-28T11:31:53;5.13;;;1.80;;
2187;SDS011;1100;52.014;8.540;2023-07-28T11:34:18;4.97;;;1.80;;
2187;SDS011;1100;52.014;8.540;2023-07-28T11:36:44;6.00;;;2.70;;
2187;SDS011;1100;52.014;8.540;2023-07-28T11:39:09;4.43;;;1.85;;
2187;SDS011;1100;52.014;8.540;2023-07-28T11:41:35;4.33;;;1.70;;
2187;SDS011;1100;52.014;8.540;2023-07-28T11:44:02;3.88;;;1.40;;
2187;SDS011;1100;52.014;8.540;2023-07-28T11:46:33;5.43;;;2.00;;
2187;SDS011;1100;52.014;8.540;2023-07-28T11:49:09;4.50;;;1.75;;
2187;SDS011;1100;52.014;8.540;2023-07-28T11:51:41;4.80;;;1.90;;
2187;SDS011;1100;52.014;8.540;2023-07-28T11:54:13;4.47;;;1.70;;
2187;SDS011;1100;52.014;8.540;2023-07-28T11:56:40;4.45;;;1.92;;
2187;SDS011;1100;52.014;8.540;2023-07-28T11:59:09;5.40;;;1.92;;
2187;SDS011;1100;52.014;8.540;2023-07-28T12:04:39;4.72;;;2.08;;
2187;SDS011;1100;52.014;8.540;2023-07-28T12:07:09;4.47;;;1.70;;
2187;SDS011;1100;52.014;8.540;2023-07-28T12:12:14;5.32;;;1.90;;
2187;SDS011;1100;52.014;8.540;2023-07-28T12:14:41;4.20;;;1.65;;
2187;SDS011;1100;52.014;8.540;2023-07-28T12:17:13;5.78;;;1.80;;
2187;SDS011;1100;52.014;8.540;2023-07-28T12:19:54;4.20;;;1.63;;
2187;SDS011;1100;52.014;8.540;2023-07-28T12:22:22;4.55;;;1.45;;
2187;SDS011;1100;52.014;8.540;2023-07-28T12:24:48;4.32;;;1.40;;
2187;SDS011;1100;52.014;8.540;2023-07-28T12:27:13;4.63;;;1.50;;
2187;SDS011;1100;52.014;8.540;2023-07-28T12:29:39;3.73;;;1.10;;
2187;SDS011;1100;52.014;8.540;2023-07-28T12:32:07;4.40;;;1.60;;
2187;SDS011;1100;52.014;8.540;2023-07-28T12:34:33;4.97;;;1.40;;
2187;SDS011;1100;52.014;8.540;2023-07-28T12:36:59;3.80;;;1.60;;
2187;SDS011;1100;52.014;8.540;2023-07-28T12:39:25;4.32;;;1.63;;
2187;SDS011;1100;52.014;8.540;2023-07-28T12:41:51;4.50;;;1.63;;
2187;SDS011;1100;52.014;8.540;2023-07-28T12:44:19;4.43;;;1.92;;
2187;SDS011;1100;52.014;8.540;2023-07-28T12:46:45;4.20;;;1.35;;
2187;SDS011;1100;52.014;8.540;2023-07-28T12:49:13;4.50;;;1.60;;
2187;SDS011;1100;52.014;8.540;2023-07-28T12:51:40;3.95;;;1.73;;
2187;SDS011;1100;52.014;8.540;2023-07-28T12:54:08;4.25;;;1.50;;
2187;SDS011;1100;52.014;8.540;2023-07-28T12:56:36;5.13;;;1.43;;
2187;SDS011;1100;52.014;8.540;2023-07-28T12:59:01;3.67;;;1.17;;
2187;SDS011;1100;52.014;8.540;2023-07-28T13:01:27;3.70;;;1.37;;
2187;SDS011;1100;52.014;8.540;2023-07-28T13:03:52;3.20;;;0.93;;
2187;SDS011;1100;52.014;8.540;2023-07-28T13:06:18;2.65;;;0.95;;
2187;SDS011;1100;52.014;8.540;2023-07-28T13:08:44;3.20;;;1.07;;
2187;SDS011;1100;52.014;8.540;2023-07-28T13:11:09;3.85;;;1.35;;
2187;SDS011;1100;52.014;8.540;2023-07-28T13:13:35;3.67;;;1.47;;
2187;SDS011;1100;52.014;8.540;2023-07-28T13:16:03;4.90;;;1.40;;
2187;SDS011;1100;52.014;8.540;2023-07-28T13:18:29;4.37;;;1.10;;
2187;SDS011;1100;52.014;8.540;2023-07-28T13:20:56;4.72;;;1.48;;
2187;SDS011;1100;52.014;8.540;2023-07-28T13:23:21;3.73;;;1.10;;
2187;SDS011;1100;52.014;8.540;2023-07-28T13:25:46;3.93;;;1.07;;
2187;SDS011;1100;52.014;8.540;2023-07-28T13:28:17;3.50;;;1.33;;
2187;SDS011;1100;52.014;8.540;2023-07-28T13:30:46;4.20;;;1.60;;
2187;SDS011;1100;52.014;8.540;2023-07-28T13:33:11;3.80;;;1.50;;
2187;SDS011;1100;52.014;8.540;2023-07-28T13:35:37;4.33;;;1.27;;
2187;SDS011;1100;52.014;8.540;2023-07-28T13:38:02;4.07;;;1.60;;
2187;SDS011;1100;52.014;8.540;2023-07-28T13:40:27;4.17;;;1.40;;
2187;SDS011;1100;52.014;8.540;2023-07-28T13:42:53;4.50;;;1.75;;
2187;SDS011;1100;52.014;8.540;2023-07-28T13:45:19;3.93;;;1.40;;
2187;SDS011;1100;52.014;8.540;2023-07-28T13:47:44;4.53;;;1.60;;
2187;SDS011;1100;52.014;8.540;2023-07-28T13:50:10;3.28;;;1.27;;
2187;SDS011;1100;52.014;8.540;2023-07-28T13:52:35;4.17;;;1.47;;
2187;SDS011;1100;52.014;8.540;2023-07-28T13:55:04;3.67;;;1.40;;
2187;SDS011;1100;52.014;8.540;2023-07-28T13:57:33;3.35;;;1.13;;
2187;SDS011;1100;52.014;8.540;2023-07-28T13:59:59;4.13;;;1.40;;
2187;SDS011;1100;52.014;8.540;2023-07-28T14:02:24;4.83;;;1.63;;
2187;SDS011;1100;52.014;8.540;2023-07-28T14:04:50;3.60;;;1.20;;
2187;SDS011;1100;52.014;8.540;2023-07-28T14:07:15;3.30;;;1.23;;
2187;SDS011;1100;52.014;8.540;2023-07-28T14:09:41;2.93;;;1.00;;
2187;SDS011;1100;52.014;8.540;2023-07-28T14:12:06;4.33;;;1.57;;
2187;SDS011;1100;52.014;8.540;2023-07-28T14:14:35;3.60;;;1.58;;
2187;SDS011;1100;52.014;8.540;2023-07-28T14:17:00;3.70;;;1.40;;
2187;SDS011;1100;52.014;8.540;2023-07-28T14:19:29;3.70;;;1.33;;
2187;SDS011;1100;52.014;8.540;2023-07-28T14:21:54;4.38;;;1.50;;
2187;SDS011;1100;52.014;8.540;2023-07-28T14:24:20;3.63;;;1.50;;
2187;SDS011;1100;52.014;8.540;2023-07-28T14:26:48;3.65;;;1.30;;
2187;SDS011;1100;52.014;8.540;2023-07-28T14:29:17;3.10;;;1.27;;
2187;SDS011;1100;52.014;8.540;2023-07-28T14:31:48;3.72;;;1.50;;
2187;SDS011;1100;52.014;8.540;2023-07-28T14:34:13;3.60;;;1.30;;
2187;SDS011;1100;52.014;8.540;2023-07-28T14:36:39;3.83;;;1.87;;
2187;SDS011;1100;52.014;8.540;2023-07-28T14:39:04;3.40;;;1.30;;
2187;SDS011;1100;52.014;8.540;2023-07-28T14:41:30;3.73;;;1.20;;
2187;SDS011;1100;52.014;8.540;2023-07-28T14:43:58;3.53;;;1.25;;
2187;SDS011;1100;52.014;8.540;2023-07-28T14:46:24;2.73;;;1.00;;
2187;SDS011;1100;52.014;8.540;2023-07-28T14:48:50;3.78;;;1.60;;
2187;SDS011;1100;52.014;8.540;2023-07-28T14:51:16;3.47;;;1.20;;
2187;SDS011;1100;52.014;8.540;2023-07-28T14:53:41;3.20;;;1.30;;
2187;SDS011;1100;52.014;8.540;2023-07-28T14:56:07;3.53;;;1.30;;
2187;SDS011;1100;52.014;8.540;2023-07-28T14:58:33;3.50;;;1.43;;
2187;SDS011;1100;52.014;8.540;2023-07-28T15:00:58;3.78;;;1.73;;
2187;SDS011;1100;52.014;8.540;2023-07-28T15:03:29;3.15;;;1.35;;
2187;SDS011;1100;52.014;8.540;2023-07-28T15:05:58;3.22;;;1.40;;
2187;SDS011;1100;52.014;8.540;2023-07-28T15:08:24;4.90;;;1.67;;
2187;SDS011;1100;52.014;8.540;2023-07-28T15:10:50;3.93;;;1.70;;
2187;SDS011;1100;52.014;8.540;2023-07-28T15:13:16;4.75;;;1.70;;
2187;SDS011;1100;52.014;8.540;2023-07-28T15:15:41;3.83;;;1.60;;
2187;SDS011;1100;52.014;8.540;2023-07-28T15:18:06;4.17;;;1.80;;
2187;SDS011;1100;52.014;8.540;2023-07-28T15:20:35;4.13;;;1.60;;
2187;SDS011;1100;52.014;8.540;2023-07-28T15:23:01;3.88;;;1.73;;
2187;SDS011;1100;52.014;8.540;2023-07-28T15:25:27;3.07;;;1.20;;